Time;durP1;ratioP1;P1;durP2;ratioP2;P2;SDS_P1;SDS_P2;PMS_P1;PMS_P2;Temp;Humidity;BMP_temperature;BMP_pressure;BME280_temperature;BME280_humidity;BME280_pressure;Samples;Min_cycle;Max_cycle;Signal;HPM_P1;HPM_P2
2022/04/17 00:01:43;;;;;;;1.07;0.70;;;23.20;53.00;;;;;;5017897;28;20443;-82
2022/04/17 00:04:13;;;;;;;1.00;0.70;;;23.20;53.00;;;;;;5000703;28;20486;-82
2022/04/17 00:06:39;;;;;;;1.10;0.70;;;23.20;53.00;;;;;;5034435;28;20425;-82
2022/04/17 00:09:12;;;;;;;1.60;1.00;;;23.20;53.00;;;;;;5035964;28;20415;-82
2022/04/17 00:11:44;;;;;;;0.90;0.70;;;23.20;53.50;;;;;;5034760;28;20419;-82
2022/04/17 00:14:13;;;;;;;0.80;0.70;;;23.20;53.00;;;;;;5000885;28;20419;-82
2022/04/17 00:16:42;;;;;;;1.20;0.77;;;23.20;53.00;;;;;;5035012;28;20423;-82
2022/04/17 00:19:10;;;;;;;1.00;0.80;;;23.20;53.00;;;;;;5017676;28;20423;-82
2022/04/17 00:21:38;;;;;;;0.90;0.70;;;23.20;53.00;;;;;;5017793;28;20431;-82
2022/04/17 00:24:04;;;;;;;1.00;0.80;;;23.20;53.00;;;;;;5034314;28;20490;-82
2022/04/17 00:26:32;;;;;;;1.30;0.87;;;23.20;53.00;;;;;;5016580;28;20412;-82
2022/04/17 00:28:58;;;;;;;2.17;0.90;;;23.20;53.00;;;;;;4995460;28;20435;-82
2022/04/17 00:31:27;;;;;;;1.00;0.70;;;23.20;53.00;;;;;;5017033;28;20463;-82
2022/04/17 00:33:53;;;;;;;0.80;0.70;;;23.20;53.00;;;;;;5030490;28;20471;-81
2022/04/17 00:36:19;;;;;;;1.00;0.70;;;23.20;53.00;;;;;;5033532;28;20438;-81
2022/04/17 00:38:46;;;;;;;1.00;0.70;;;23.20;53.00;;;;;;5015568;28;20192;-81
2022/04/17 00:41:12;;;;;;;1.20;0.80;;;23.20;53.00;;;;;;5011877;28;20423;-81
2022/04/17 00:43:50;;;;;;;0.90;0.70;;;23.20;53.00;;;;;;5017552;28;20517;-82
2022/04/17 00:46:18;;;;;;;1.13;1.03;;;23.20;53.00;;;;;;5012651;28;20507;-82
2022/04/17 00:48:46;;;;;;;1.17;0.80;;;23.20;53.00;;;;;;5001187;28;20430;-82
2022/04/17 00:51:16;;;;;;;1.17;0.80;;;23.20;53.00;;;;;;5012220;28;20432;-82
2022/04/17 00:53:46;;;;;;;1.30;0.80;;;23.20;53.00;;;;;;5018344;28;20431;-82
2022/04/17 00:56:13;;;;;;;1.23;0.80;;;23.20;53.00;;;;;;5012770;28;20423;-82
2022/04/17 00:58:40;;;;;;;1.30;0.80;;;23.20;53.00;;;;;;5034487;28;20419;-82
2022/04/17 01:01:08;;;;;;;1.00;0.70;;;23.20;53.00;;;;;;5017632;28;20431;-82
2022/04/17 01:03:43;;;;;;;1.13;0.90;;;23.20;53.00;;;;;;5016835;28;20455;-82
2022/04/17 01:06:08;;;;;;;1.30;0.90;;;23.20;53.00;;;;;;5016924;28;20429;-82
2022/04/17 01:08:41;;;;;;;0.87;0.77;;;23.20;53.00;;;;;;5018253;28;20411;-81
2022/04/17 01:11:14;;;;;;;0.97;0.70;;;23.20;53.00;;;;;;5014269;28;20412;-82
2022/04/17 01:13:41;;;;;;;0.90;0.77;;;23.20;53.10;;;;;;5015508;28;20422;-82
2022/04/17 01:16:07;;;;;;;1.10;0.70;;;23.20;53.00;;;;;;4999865;28;20466;-82
2022/04/17 01:18:56;;;;;;;1.00;0.80;;;23.20;53.00;;;;;;5034556;28;20411;-82
2022/04/17 01:21:26;;;;;;;1.33;0.83;;;23.20;53.00;;;;;;5010329;28;20426;-82
2022/04/17 01:26:59;;;;;;;1.10;0.70;;;23.10;53.00;;;;;;5034191;28;20450;-82
2022/04/17 01:29:42;;;;;;;1.43;1.33;;;23.20;53.10;;;;;;5035195;28;20368;-82
2022/04/17 01:32:10;;;;;;;1.00;0.80;;;23.20;53.10;;;;;;5035249;28;20400;-82
2022/04/17 01:34:37;;;;;;;0.90;0.70;;;23.10;53.00;;;;;;5017024;28;20416;-82
2022/04/17 01:37:05;;;;;;;1.10;0.83;;;23.10;53.00;;;;;;5018114;28;20422;-82
2022/04/17 01:39:32;;;;;;;0.90;0.70;;;23.20;53.10;;;;;;5035364;28;20411;-82
2022/04/17 01:42:03;;;;;;;1.07;0.70;;;23.20;53.10;;;;;;5034321;28;20416;-82
2022/04/17 01:44:29;;;;;;;1.13;0.90;;;23.20;53.10;;;;;;5018715;28;20419;-82
2022/04/17 01:46:58;;;;;;;1.03;0.80;;;23.20;53.10;;;;;;5033891;28;20446;-82
2022/04/17 01:49:26;;;;;;;1.00;0.80;;;23.20;53.00;;;;;;5017119;28;20427;-82
2022/04/17 01:51:53;;;;;;;1.70;0.83;;;23.20;53.00;;;;;;5033712;28;20419;-82
2022/04/17 01:54:20;;;;;;;1.00;0.77;;;23.20;53.00;;;;;;5016748;28;20419;-80
2022/04/17 01:56:47;;;;;;;1.00;0.67;;;23.20;53.00;;;;;;5034464;28;20419;-82
2022/04/17 01:59:16;;;;;;;1.10;0.77;;;23.20;53.00;;;;;;5016995;28;20403;-82
2022/04/17 02:01:42;;;;;;;0.90;0.80;;;23.20;53.00;;;;;;5017904;28;20427;-82
2022/04/17 02:04:10;;;;;;;1.30;0.80;;;23.20;53.00;;;;;;5032622;28;20514;-82
2022/04/17 02:06:40;;;;;;;1.10;0.80;;;23.20;53.10;;;;;;5034434;28;20439;-82
2022/04/17 02:09:11;;;;;;;0.90;0.70;;;23.10;52.90;;;;;;5017819;28;20426;-82
2022/04/17 02:11:38;;;;;;;1.20;0.80;;;23.10;52.90;;;;;;5015332;28;20420;-82
2022/04/17 02:14:08;;;;;;;1.03;0.80;;;23.10;53.00;;;;;;5034754;28;20412;-82
2022/04/17 02:16:37;;;;;;;1.10;0.80;;;23.10;53.00;;;;;;5034524;28;20415;-82
2022/04/17 02:19:04;;;;;;;1.20;0.70;;;23.10;53.00;;;;;;5034111;28;20423;-82
2022/04/17 02:21:31;;;;;;;1.00;0.70;;;23.10;53.00;;;;;;5034527;28;20399;-82
2022/04/17 02:24:00;;;;;;;1.00;0.80;;;23.10;53.00;;;;;;5034568;28;20443;-82
2022/04/17 02:26:26;;;;;;;1.07;0.80;;;23.10;53.00;;;;;;5033585;28;20443;-82
2022/04/17 02:28:56;;;;;;;0.90;0.70;;;23.10;53.00;;;;;;5034318;28;20431;-82
2022/04/17 02:31:22;;;;;;;1.30;1.00;;;23.10;53.00;;;;;;5033852;28;20416;-82
2022/04/17 02:33:50;;;;;;;0.90;0.70;;;23.10;53.00;;;;;;5017892;28;20415;-82
2022/04/17 02:36:19;;;;;;;0.90;0.70;;;23.10;53.00;;;;;;5034265;28;20427;-82
2022/04/17 02:38:45;;;;;;;1.00;0.87;;;23.10;53.00;;;;;;5016685;28;20442;-82
2022/04/17 02:41:32;;;;;;;1.00;0.70;;;23.10;53.00;;;;;;5017500;28;20415;-82
2022/04/17 02:44:00;;;;;;;1.00;0.87;;;23.10;53.00;;;;;;5029273;28;20463;-82
2022/04/17 02:49:15;;;;;;;1.10;0.70;;;23.10;53.00;;;;;;5035125;28;20386;-82
2022/04/17 02:51:41;;;;;;;1.30;0.90;;;23.10;53.00;;;;;;5033846;28;20499;-82
2022/04/17 02:54:09;;;;;;;1.30;0.80;;;23.10;53.00;;;;;;5034361;28;20415;-82
2022/04/17 02:56:37;;;;;;;1.30;0.80;;;23.10;53.00;;;;;;5034212;28;20514;-82
2022/04/17 02:59:02;;;;;;;1.00;0.70;;;23.10;53.00;;;;;;5016859;28;20427;-82
2022/04/17 03:07:04;;;;;;;1.10;0.70;;;23.10;53.10;;;;;;5034240;28;20395;-82
2022/04/17 03:09:30;;;;;;;1.00;0.80;;;23.00;53.00;;;;;;5016787;28;20479;-82
2022/04/17 03:11:56;;;;;;;1.10;0.70;;;23.10;53.10;;;;;;5033190;28;20412;-83
2022/04/17 03:14:24;;;;;;;0.80;0.70;;;23.10;53.10;;;;;;5016619;28;20407;-82
2022/04/17 03:16:53;;;;;;;1.10;0.83;;;23.10;53.10;;;;;;5019756;28;20426;-82
2022/04/17 03:19:19;;;;;;;0.93;0.73;;;23.10;53.10;;;;;;5036580;28;20455;-82
2022/04/17 03:21:46;;;;;;;1.00;0.70;;;23.10;53.10;;;;;;5003103;28;20442;-82
2022/04/17 03:24:12;;;;;;;1.20;0.83;;;23.10;53.10;;;;;;5019858;28;20470;-82
2022/04/17 03:26:41;;;;;;;0.90;0.73;;;23.00;53.10;;;;;;5019305;28;20420;-82
2022/04/17 03:29:08;;;;;;;1.77;0.80;;;23.00;53.60;;;;;;5036955;28;20452;-82
2022/04/17 03:31:37;;;;;;;2.23;0.67;;;23.10;53.10;;;;;;5020444;28;20812;-83
2022/04/17 03:34:06;;;;;;;1.10;0.80;;;23.10;53.10;;;;;;5020156;28;20411;-82
2022/04/17 03:36:39;;;;;;;1.10;0.70;;;23.00;53.00;;;;;;5036973;28;20415;-83
2022/04/17 03:39:06;;;;;;;1.00;0.63;;;23.00;53.00;;;;;;5004710;28;20467;-82
2022/04/17 03:41:32;;;;;;;1.00;0.70;;;23.00;53.00;;;;;;5018970;28;20419;-82
2022/04/17 03:44:12;;;;;;;1.07;0.70;;;23.00;53.00;;;;;;5019553;28;20554;-83
2022/04/17 03:46:39;;;;;;;0.90;0.70;;;23.00;53.10;;;;;;5036654;28;20376;-82
2022/04/17 03:49:05;;;;;;;1.07;0.80;;;23.00;53.10;;;;;;5035769;28;20423;-82
2022/04/17 03:51:31;;;;;;;0.80;0.70;;;23.00;53.10;;;;;;5019353;28;20487;-83
2022/04/17 03:53:56;;;;;;;0.97;0.67;;;23.00;53.10;;;;;;5019539;28;20430;-82
2022/04/17 03:56:24;;;;;;;0.90;0.80;;;23.00;53.10;;;;;;5019783;28;20172;-82
2022/04/17 03:58:54;;;;;;;0.90;0.60;;;23.00;53.10;;;;;;5019854;28;20407;-82
2022/04/17 04:01:20;;;;;;;0.80;0.70;;;23.00;53.10;;;;;;5037044;28;20443;-82
2022/04/17 04:03:49;;;;;;;0.90;0.70;;;23.00;53.10;;;;;;5020150;28;20455;-82
2022/04/17 04:06:16;;;;;;;0.93;0.80;;;23.00;53.10;;;;;;5037271;28;20407;-82
2022/04/17 04:08:43;;;;;;;1.00;0.80;;;23.00;53.10;;;;;;5004061;28;20447;-82
2022/04/17 04:11:08;;;;;;;0.80;0.67;;;23.00;53.10;;;;;;5003301;28;20423;-82
2022/04/17 04:13:36;;;;;;;1.40;1.00;;;23.00;53.10;;;;;;5035686;28;20419;-82
2022/04/17 04:16:02;;;;;;;1.00;0.70;;;23.00;53.10;;;;;;5036746;28;20258;-82
2022/04/17 04:18:28;;;;;;;0.93;0.73;;;23.00;53.10;;;;;;5037039;28;20415;-82
2022/04/17 04:20:56;;;;;;;1.17;0.80;;;23.00;53.10;;;;;;5036705;28;20446;-82
2022/04/17 04:23:22;;;;;;;0.97;0.67;;;23.00;53.10;;;;;;5019086;28;20227;-83
2022/04/17 04:25:48;;;;;;;0.80;0.70;;;23.00;53.10;;;;;;5019102;28;20462;-83
2022/04/17 04:31:01;;;;;;;0.90;0.70;;;23.00;53.10;;;;;;5035853;28;20972;-83
2022/04/17 04:33:27;;;;;;;1.57;0.90;;;23.00;53.10;;;;;;5003325;28;20415;-82
2022/04/17 04:35:53;;;;;;;1.23;0.80;;;23.00;53.10;;;;;;5034052;28;20503;-83
2022/04/17 04:38:19;;;;;;;1.00;0.80;;;23.00;53.10;;;;;;5036262;28;20173;-83
2022/04/17 04:40:45;;;;;;;0.97;0.80;;;23.00;53.10;;;;;;5036111;28;20180;-83
2022/04/17 04:43:12;;;;;;;1.00;0.67;;;23.00;53.10;;;;;;5034538;28;20454;-82
2022/04/17 04:51:09;;;;;;;1.87;0.87;;;23.00;53.10;;;;;;5036135;28;20387;-82
2022/04/17 04:53:35;;;;;;;0.80;0.70;;;23.00;53.10;;;;;;5035366;28;20418;-82
2022/04/17 04:56:14;;;;;;;0.87;0.70;;;23.10;53.20;;;;;;5036083;28;20419;-82
2022/04/17 04:58:41;;;;;;;1.00;0.80;;;23.10;53.20;;;;;;5035812;28;20406;-83
2022/04/17 05:01:09;;;;;;;1.10;0.80;;;23.10;53.10;;;;;;5018588;28;20469;-82
2022/04/17 05:03:36;;;;;;;0.90;0.80;;;23.10;53.10;;;;;;5018616;28;20462;-82
2022/04/17 05:06:02;;;;;;;1.10;0.80;;;23.10;53.10;;;;;;5018239;28;20415;-83
2022/04/17 05:08:29;;;;;;;0.90;0.70;;;23.10;53.10;;;;;;5018748;28;20443;-82
2022/04/17 05:10:55;;;;;;;1.13;0.80;;;23.10;53.10;;;;;;5018080;28;20418;-82
2022/04/17 05:13:21;;;;;;;1.00;0.60;;;23.10;53.10;;;;;;5035680;28;20407;-82
2022/04/17 05:15:47;;;;;;;0.80;0.70;;;23.10;53.10;;;;;;5035578;28;20419;-83
2022/04/17 05:18:13;;;;;;;1.53;0.60;;;23.10;53.10;;;;;;5018424;28;20244;-82
2022/04/17 05:20:40;;;;;;;0.80;0.70;;;23.10;53.00;;;;;;5017997;28;20450;-82
2022/04/17 05:23:25;;;;;;;1.00;0.80;;;23.10;53.00;;;;;;5017947;28;20530;-83
2022/04/17 05:25:55;;;;;;;1.30;0.83;;;23.10;53.00;;;;;;5034994;28;20403;-81
2022/04/17 05:28:21;;;;;;;1.53;0.80;;;23.10;53.00;;;;;;5035426;28;20486;-81
2022/04/17 05:30:47;;;;;;;0.87;0.60;;;23.20;53.10;;;;;;5034827;28;20411;-81
2022/04/17 05:33:16;;;;;;;0.90;0.70;;;23.10;53.10;;;;;;5018721;28;20422;-81
2022/04/17 05:35:42;;;;;;;0.97;0.70;;;23.20;53.10;;;;;;5017962;28;20423;-81
2022/04/17 05:38:08;;;;;;;1.57;0.70;;;23.20;53.10;;;;;;5016620;28;20434;-81
2022/04/17 05:40:37;;;;;;;1.00;0.70;;;23.20;53.10;;;;;;5012853;28;20184;-82
2022/04/17 05:43:04;;;;;;;0.90;0.77;;;23.20;53.10;;;;;;5015251;28;20204;-81
2022/04/17 05:45:30;;;;;;;1.20;0.70;;;23.20;53.10;;;;;;5014998;28;20533;-82
2022/04/17 05:47:57;;;;;;;1.00;0.70;;;23.20;53.10;;;;;;5032253;28;20411;-82
2022/04/17 05:50:23;;;;;;;0.90;0.70;;;23.20;53.10;;;;;;5014057;28;20427;-81
2022/04/17 05:52:49;;;;;;;1.10;0.90;;;23.20;53.10;;;;;;5023586;28;20443;-82
2022/04/17 05:55:21;;;;;;;0.97;0.80;;;23.20;53.00;;;;;;5014675;28;20203;-82
2022/04/17 05:57:48;;;;;;;0.80;0.70;;;23.20;53.00;;;;;;5015982;28;20165;-82
2022/04/17 06:00:16;;;;;;;1.07;0.70;;;23.20;53.00;;;;;;5032015;28;20462;-82
2022/04/17 06:02:46;;;;;;;1.07;0.80;;;23.20;53.00;;;;;;5015410;28;20795;-82
2022/04/17 06:05:13;;;;;;;1.10;0.80;;;23.20;53.00;;;;;;5027639;28;20419;-82
2022/04/17 06:07:39;;;;;;;1.20;0.80;;;23.20;53.10;;;;;;5032093;28;20412;-81
2022/04/17 06:10:09;;;;;;;0.90;0.60;;;23.20;53.00;;;;;;5014815;28;20415;-83
2022/04/17 06:12:36;;;;;;;0.90;0.70;;;23.20;53.00;;;;;;5015803;28;20421;-83
2022/04/17 06:15:03;;;;;;;1.17;0.70;;;23.20;53.00;;;;;;5032173;28;20415;-81
2022/04/17 06:17:38;;;;;;;1.00;0.70;;;23.20;53.00;;;;;;5032395;28;20415;-83
2022/04/17 06:20:08;;;;;;;0.97;0.80;;;23.20;53.00;;;;;;5032702;28;20451;-83
2022/04/17 06:22:35;;;;;;;0.80;0.70;;;23.20;53.00;;;;;;5032466;28;20469;-83
2022/04/17 06:25:06;;;;;;;0.93;0.67;;;23.20;53.10;;;;;;5014469;28;20438;-83
2022/04/17 06:27:46;;;;;;;1.00;0.73;;;23.20;53.00;;;;;;5031441;28;20414;-84
2022/04/17 06:30:18;;;;;;;0.90;0.70;;;23.20;53.00;;;;;;5032620;28;20395;-84
2022/04/17 06:32:45;;;;;;;0.90;0.70;;;23.20;53.00;;;;;;5000130;28;20427;-83
2022/04/17 06:35:12;;;;;;;0.90;0.70;;;23.20;53.00;;;;;;5033052;28;20411;-83
2022/04/17 06:37:56;;;;;;;1.17;0.73;;;23.20;53.00;;;;;;5012830;28;20416;-83
2022/04/17 06:40:28;;;;;;;1.10;0.80;;;23.30;53.10;;;;;;5016667;28;20406;-83
2022/04/17 06:42:56;;;;;;;0.90;0.70;;;23.20;53.00;;;;;;5015403;28;20490;-83
2022/04/17 06:45:24;;;;;;;1.00;0.80;;;23.20;53.00;;;;;;5014115;28;20506;-83
2022/04/17 06:47:50;;;;;;;1.00;0.70;;;23.20;53.00;;;;;;5033843;28;20396;-83
2022/04/17 06:50:18;;;;;;;1.10;0.73;;;23.30;53.10;;;;;;5033978;28;20407;-83
2022/04/17 06:52:44;;;;;;;1.10;0.80;;;23.30;53.10;;;;;;4999876;28;20435;-83
2022/04/17 06:55:12;;;;;;;0.97;0.70;;;23.30;53.10;;;;;;5030868;28;20757;-83
2022/04/17 06:57:48;;;;;;;1.00;0.70;;;23.30;53.10;;;;;;5015578;28;20442;-83
2022/04/17 07:00:17;;;;;;;0.90;0.73;;;23.30;53.10;;;;;;5017339;28;20450;-83
2022/04/17 07:02:51;;;;;;;1.00;0.70;;;23.30;53.60;;;;;;5015500;28;20463;-83
2022/04/17 07:05:17;;;;;;;0.90;0.60;;;23.30;53.10;;;;;;5002183;28;20420;-83
2022/04/17 07:07:45;;;;;;;1.00;0.70;;;23.30;53.10;;;;;;5015980;28;20418;-83
2022/04/17 07:10:12;;;;;;;0.90;0.60;;;23.30;53.10;;;;;;5031813;28;20422;-82
2022/04/17 07:12:42;;;;;;;1.43;0.80;;;23.30;53.10;;;;;;5031966;28;20901;-83
2022/04/17 07:15:09;;;;;;;1.10;0.70;;;23.30;53.10;;;;;;5032452;28;20880;-83
2022/04/17 07:17:37;;;;;;;0.80;0.60;;;23.30;53.10;;;;;;5013834;28;20415;-83
2022/04/17 07:20:06;;;;;;;1.67;0.70;;;23.30;53.10;;;;;;5047071;28;20412;-83
2022/04/17 07:22:35;;;;;;;0.90;0.70;;;23.30;53.10;;;;;;5013557;28;20468;-83
2022/04/17 07:25:04;;;;;;;0.90;0.80;;;23.30;53.10;;;;;;5047007;28;20412;-83
2022/04/17 07:27:44;;;;;;;0.90;0.70;;;23.30;53.10;;;;;;5013291;28;20407;-83
2022/04/17 07:30:22;;;;;;;0.93;0.80;;;23.30;53.10;;;;;;5013362;28;20408;-83
2022/04/17 07:32:52;;;;;;;0.80;0.63;;;23.30;53.10;;;;;;5013851;28;20416;-83
2022/04/17 07:35:18;;;;;;;1.10;1.00;;;23.30;53.10;;;;;;5014409;28;20415;-83
2022/04/17 07:38:03;;;;;;;0.90;0.70;;;23.30;53.10;;;;;;5013349;28;20420;-83
2022/04/17 07:40:34;;;;;;;0.80;0.60;;;23.30;53.10;;;;;;5028291;28;20415;-83
2022/04/17 07:43:05;;;;;;;0.90;0.80;;;23.30;53.10;;;;;;5014406;28;20452;-83
2022/04/17 07:45:32;;;;;;;1.10;0.90;;;23.30;53.00;;;;;;5030098;28;20436;-83
2022/04/17 07:48:07;;;;;;;1.97;1.20;;;23.30;52.90;;;;;;5013860;28;20478;-83
2022/04/17 07:50:35;;;;;;;1.93;1.60;;;23.30;52.70;;;;;;5046265;28;20508;-83
2022/04/17 07:53:02;;;;;;;3.13;2.47;;;23.30;52.50;;;;;;5016218;28;20450;-83
2022/04/17 07:55:28;;;;;;;3.37;3.07;;;23.30;52.40;;;;;;5017317;28;20407;-83
2022/04/17 08:00:46;;;;;;;4.37;3.97;;;23.30;52.50;;;;;;5033077;28;20407;-83
2022/04/17 08:05:58;;;;;;;3.80;2.93;;;23.20;52.50;;;;;;5036345;28;20419;-83
2022/04/17 08:08:24;;;;;;;2.87;2.67;;;23.20;52.60;;;;;;5019812;28;20408;-83
2022/04/17 08:10:49;;;;;;;3.60;2.83;;;23.20;52.50;;;;;;5037265;28;20184;-83
2022/04/17 08:13:16;;;;;;;2.50;2.30;;;23.20;52.50;;;;;;5020057;28;20184;-83
2022/04/17 08:15:42;;;;;;;3.83;3.00;;;23.20;52.60;;;;;;5019271;28;20176;-84
2022/04/17 08:18:07;;;;;;;2.57;2.37;;;23.20;52.50;;;;;;5037246;28;20451;-83
2022/04/17 08:20:33;;;;;;;2.70;2.33;;;23.20;52.50;;;;;;5020445;28;20191;-83
2022/04/17 08:22:59;;;;;;;2.80;2.60;;;23.20;52.50;;;;;;5019047;28;20212;-82
2022/04/17 08:25:25;;;;;;;3.40;2.20;;;23.20;52.50;;;;;;5020141;28;20161;-83
2022/04/17 08:27:52;;;;;;;3.30;2.70;;;23.20;52.50;;;;;;5036091;28;20180;-82
2022/04/17 08:30:30;;;;;;;3.70;2.13;;;23.20;52.50;;;;;;5019340;28;20199;-83
2022/04/17 08:32:57;;;;;;;4.50;3.33;;;23.20;52.50;;;;;;5037840;28;20406;-83
2022/04/17 08:35:23;;;;;;;3.20;2.77;;;23.20;52.50;;;;;;5020444;28;20423;-83
2022/04/17 08:37:49;;;;;;;3.00;2.80;;;23.20;52.50;;;;;;5037880;28;20487;-82
2022/04/17 08:40:15;;;;;;;3.17;2.30;;;23.20;52.50;;;;;;5037103;28;20183;-82
2022/04/17 08:42:42;;;;;;;4.27;2.80;;;23.20;52.60;;;;;;5036797;28;20477;-82
2022/04/17 08:45:09;;;;;;;3.13;2.67;;;23.20;52.60;;;;;;5020079;28;20415;-82
2022/04/17 08:47:37;;;;;;;3.00;2.37;;;23.20;52.60;;;;;;5020243;28;20423;-82
2022/04/17 08:50:06;;;;;;;3.30;2.57;;;23.20;52.60;;;;;;5019124;28;20418;-82
2022/04/17 08:52:34;;;;;;;3.50;2.40;;;23.20;52.60;;;;;;5019465;28;20416;-82
2022/04/17 08:55:01;;;;;;;3.60;2.50;;;23.20;52.60;;;;;;5019887;28;20423;-83
2022/04/17 08:57:28;;;;;;;3.00;2.20;;;23.20;52.60;;;;;;5018818;28;20408;-83
2022/04/17 08:59:53;;;;;;;2.20;2.00;;;23.20;52.60;;;;;;5002569;28;20428;-83
2022/04/17 09:02:19;;;;;;;3.40;2.27;;;23.20;52.60;;;;;;5036572;28;20490;-82
2022/04/17 09:04:47;;;;;;;2.37;2.17;;;23.20;52.70;;;;;;5019260;28;20186;-82
2022/04/17 09:07:13;;;;;;;2.63;2.20;;;23.20;52.70;;;;;;5002705;28;20188;-82
2022/04/17 09:09:50;;;;;;;3.30;2.43;;;23.20;52.70;;;;;;5035974;28;20453;-82
2022/04/17 09:12:25;;;;;;;2.40;1.67;;;23.20;52.70;;;;;;5015664;28;20458;-83
2022/04/17 09:14:55;;;;;;;1.67;1.57;;;23.20;52.70;;;;;;5017856;28;20418;-83
2022/04/17 09:17:38;;;;;;;1.90;1.70;;;23.20;52.70;;;;;;5019618;28;20446;-82
2022/04/17 09:20:06;;;;;;;3.77;2.00;;;23.20;52.70;;;;;;5004077;28;20423;-83
2022/04/17 09:22:50;;;;;;;2.07;1.50;;;23.20;52.70;;;;;;5019451;28;20463;-83
2022/04/17 09:25:18;;;;;;;2.80;1.70;;;23.20;52.70;;;;;;5036323;28;20889;-83
2022/04/17 09:28:06;;;;;;;2.73;1.83;;;23.20;52.70;;;;;;5019330;28;20423;-83
2022/04/17 09:30:47;;;;;;;3.10;1.83;;;23.20;52.70;;;;;;5019146;28;20400;-82
2022/04/17 09:33:14;;;;;;;2.10;1.70;;;23.20;52.70;;;;;;5018881;28;20518;-83
2022/04/17 09:35:52;;;;;;;1.87;1.67;;;23.10;52.70;;;;;;5002300;28;20458;-83
2022/04/17 09:38:26;;;;;;;2.00;1.80;;;23.20;52.80;;;;;;5003199;28;20435;-83
2022/04/17 09:40:52;;;;;;;3.00;1.70;;;23.20;52.70;;;;;;5018818;28;20431;-82
2022/04/17 09:43:19;;;;;;;1.80;1.70;;;23.10;52.70;;;;;;5035765;28;20447;-82
2022/04/17 09:46:06;;;;;;;1.80;1.63;;;23.20;52.70;;;;;;5018571;28;20454;-82
2022/04/17 09:48:39;;;;;;;2.10;1.53;;;23.20;52.80;;;;;;5035787;28;20406;-82
2022/04/17 09:51:41;;;;;;;3.37;1.63;;;23.20;52.80;;;;;;5019004;28;20796;-83
2022/04/17 09:54:08;;;;;;;2.17;1.40;;;23.20;52.80;;;;;;4957040;29;20441;-82
2022/04/17 09:56:40;;;;;;;2.13;1.47;;;23.20;52.80;;;;;;4956608;29;20411;-83
2022/04/17 09:59:23;;;;;;;1.60;1.50;;;23.20;52.80;;;;;;4956002;29;20434;-84
2022/04/17 10:01:52;;;;;;;2.10;1.67;;;23.20;52.80;;;;;;4955202;29;20438;-84
2022/04/17 10:04:22;;;;;;;2.40;1.77;;;23.20;52.80;;;;;;4955724;29;20477;-84
2022/04/17 10:06:51;;;;;;;2.07;1.70;;;23.20;52.80;;;;;;4940240;29;20423;-83
2022/04/17 10:09:18;;;;;;;1.87;1.67;;;23.20;52.80;;;;;;4955172;29;20419;-83
2022/04/17 10:11:44;;;;;;;2.30;1.50;;;23.20;52.80;;;;;;4940241;29;20454;-84
2022/04/17 10:14:11;;;;;;;1.87;1.50;;;23.20;52.70;;;;;;4958706;29;20445;-84
2022/04/17 10:16:42;;;;;;;3.00;1.60;;;23.20;52.80;;;;;;4970375;29;20423;-84
2022/04/17 10:19:16;;;;;;;2.37;1.70;;;23.10;52.70;;;;;;4956661;29;20419;-84
2022/04/17 10:21:42;;;;;;;2.40;1.47;;;23.20;52.80;;;;;;4955812;29;20427;-83
2022/04/17 10:24:14;;;;;;;2.00;1.70;;;23.20;52.80;;;;;;4955593;29;20471;-83
2022/04/17 10:26:54;;;;;;;3.00;1.70;;;23.20;52.80;;;;;;4956316;29;20387;-83
2022/04/17 10:29:46;;;;;;;4.90;1.90;;;23.20;52.80;;;;;;5015565;28;20416;-83
2022/04/17 10:32:38;;;;;;;1.93;1.73;;;23.20;52.80;;;;;;5017347;28;20404;-83
2022/04/17 10:35:34;;;;;;;1.67;1.57;;;23.20;52.80;;;;;;5015286;28;20455;-82
2022/04/17 10:38:43;;;;;;;2.60;1.90;;;23.20;53.40;;;;;;5012960;28;20440;-82
2022/04/17 10:41:12;;;;;;;1.90;1.30;;;23.20;52.80;;;;;;4974503;29;20406;-82
2022/04/17 10:43:47;;;;;;;3.20;1.80;;;23.20;52.90;;;;;;4970713;28;20444;-82
2022/04/17 10:50:02;;;;;;;2.73;1.90;;;23.20;52.90;;;;;;4993643;28;20393;-82
2022/04/17 10:52:37;;;;;;;1.97;1.77;;;23.10;52.80;;;;;;4977502;28;20517;-83
2022/04/17 10:55:14;;;;;;;2.57;1.47;;;23.10;52.90;;;;;;4978621;28;20413;-83
2022/04/17 10:57:54;;;;;;;1.67;1.57;;;23.10;52.80;;;;;;4994040;28;20759;-83
2022/04/17 11:00:36;;;;;;;2.27;1.40;;;23.20;52.90;;;;;;4992920;28;20393;-82
2022/04/17 11:03:10;;;;;;;1.83;1.60;;;23.20;52.90;;;;;;4978129;28;20484;-82
2022/04/17 11:08:45;;;;;;;2.30;1.60;;;23.10;52.80;;;;;;4966629;28;20469;-83
2022/04/17 11:11:11;;;;;;;3.07;1.60;;;23.10;52.80;;;;;;4994769;28;20397;-83
2022/04/17 11:14:11;;;;;;;1.60;1.50;;;23.20;52.90;;;;;;4993923;28;20433;-83
2022/04/17 11:16:56;;;;;;;2.10;1.57;;;23.20;52.90;;;;;;4993557;28;20521;-83
2022/04/17 11:19:31;;;;;;;3.37;1.33;;;23.10;52.80;;;;;;5033717;28;20763;-83
2022/04/17 11:22:00;;;;;;;1.80;1.50;;;23.10;52.80;;;;;;5017638;28;20398;-83
2022/04/17 11:24:30;;;;;;;2.10;1.43;;;23.10;52.80;;;;;;5034681;28;20473;-82
2022/04/17 11:26:56;;;;;;;1.57;1.33;;;23.10;52.80;;;;;;5017677;28;20412;-83
2022/04/17 11:29:39;;;;;;;3.70;1.50;;;23.10;52.80;;;;;;5032404;28;20427;-82
2022/04/17 11:32:31;;;;;;;2.37;1.30;;;23.20;52.90;;;;;;5012939;28;20416;-82
2022/04/17 11:35:03;;;;;;;1.40;1.30;;;23.20;52.90;;;;;;5029909;28;20822;-82
2022/04/17 11:37:30;;;;;;;2.77;1.80;;;23.20;52.90;;;;;;5019205;28;20419;-82
2022/04/17 11:39:58;;;;;;;1.97;1.57;;;23.10;52.80;;;;;;5020121;28;20423;-82
2022/04/17 11:42:31;;;;;;;1.97;1.40;;;23.10;52.80;;;;;;5017346;28;20456;-82
2022/04/17 11:45:01;;;;;;;2.40;1.57;;;23.10;52.80;;;;;;5016546;28;20745;-82
2022/04/17 11:47:29;;;;;;;2.00;1.70;;;23.20;52.90;;;;;;5020321;28;20415;-82
2022/04/17 11:49:56;;;;;;;2.43;1.40;;;23.20;52.90;;;;;;5020652;28;20438;-82
2022/04/17 11:52:24;;;;;;;1.97;1.20;;;23.10;52.80;;;;;;5035943;28;20483;-83
2022/04/17 11:54:50;;;;;;;3.33;1.50;;;23.10;52.80;;;;;;5017733;28;20455;-83
2022/04/17 11:57:20;;;;;;;2.20;1.40;;;23.20;52.90;;;;;;5035261;28;20423;-82
2022/04/17 11:59:50;;;;;;;2.77;1.47;;;23.10;52.80;;;;;;5015366;28;20459;-83
2022/04/17 12:02:22;;;;;;;1.77;1.30;;;23.10;53.30;;;;;;5016280;28;20412;-82
2022/04/17 12:04:51;;;;;;;2.00;1.37;;;23.20;52.90;;;;;;5016717;28;20474;-82
2022/04/17 12:07:22;;;;;;;2.00;1.50;;;23.20;52.90;;;;;;5014827;28;20463;-82
2022/04/17 12:10:04;;;;;;;1.83;1.33;;;23.10;52.80;;;;;;5028922;28;20411;-82
2022/04/17 12:12:36;;;;;;;3.77;1.50;;;23.20;52.90;;;;;;5018086;28;20411;-81
2022/04/17 12:15:05;;;;;;;1.60;1.37;;;23.10;52.80;;;;;;5019109;28;20565;-82
2022/04/17 12:17:35;;;;;;;1.63;1.53;;;23.10;52.80;;;;;;5035719;28;20392;-82
2022/04/17 12:20:07;;;;;;;2.80;1.83;;;23.10;52.80;;;;;;5019714;28;20423;-81
2022/04/17 12:22:37;;;;;;;1.53;1.30;;;23.10;52.80;;;;;;5037157;28;20404;-82
2022/04/17 12:25:23;;;;;;;1.70;1.53;;;23.10;52.80;;;;;;5018914;28;20435;-82
2022/04/17 12:27:50;;;;;;;1.63;1.23;;;23.10;52.80;;;;;;5036495;28;20456;-82
2022/04/17 12:30:29;;;;;;;3.23;1.60;;;23.10;52.80;;;;;;5019396;28;20454;-81
2022/04/17 12:32:59;;;;;;;1.83;1.67;;;23.10;52.90;;;;;;5018979;28;20487;-82
2022/04/17 12:35:35;;;;;;;1.57;1.47;;;23.10;52.80;;;;;;5037139;28;20776;-82
2022/04/17 12:38:10;;;;;;;5.47;1.60;;;23.10;52.80;;;;;;5019517;28;20411;-83
2022/04/17 12:40:57;;;;;;;2.50;1.37;;;23.10;52.80;;;;;;5020250;28;20422;-82
2022/04/17 12:43:30;;;;;;;1.87;1.50;;;23.10;52.80;;;;;;5033181;28;20493;-81
2022/04/17 12:46:00;;;;;;;1.43;1.33;;;23.10;52.90;;;;;;5019821;28;20402;-83
2022/04/17 12:48:34;;;;;;;1.87;1.37;;;23.10;52.90;;;;;;5018544;28;20427;-82
2022/04/17 12:51:09;;;;;;;1.87;1.30;;;23.10;52.90;;;;;;5019669;28;20458;-82
2022/04/17 12:53:55;;;;;;;2.37;1.50;;;23.10;52.90;;;;;;5018970;28;20419;-81
2022/04/17 12:56:26;;;;;;;1.47;1.17;;;23.10;52.90;;;;;;4957027;29;20431;-82
2022/04/17 12:58:56;;;;;;;1.70;1.50;;;23.10;52.90;;;;;;4926192;29;20433;-82
2022/04/17 13:01:30;;;;;;;2.67;1.43;;;23.10;52.90;;;;;;4956898;29;20431;-82
2022/04/17 13:04:39;;;;;;;1.70;1.50;;;23.10;52.90;;;;;;4956500;29;20480;-82
2022/04/17 13:07:11;;;;;;;3.93;1.30;;;23.10;52.90;;;;;;4863166;29;20828;-81
2022/04/17 13:09:37;;;;;;;1.70;1.30;;;23.10;52.90;;;;;;4863171;29;20424;-81
2022/04/17 13:12:10;;;;;;;2.53;1.40;;;23.10;52.90;;;;;;4847442;29;20428;-82
2022/04/17 13:14:59;;;;;;;1.73;1.50;;;23.10;52.90;;;;;;4844957;29;20899;-81
2022/04/17 13:17:27;;;;;;;1.80;1.47;;;23.10;52.90;;;;;;4844848;29;20415;-82
2022/04/17 13:19:56;;;;;;;1.37;1.13;;;23.10;52.90;;;;;;4843554;29;20465;-82
2022/04/17 13:22:22;;;;;;;1.53;1.23;;;23.10;53.00;;;;;;4844120;29;20412;-82
2022/04/17 13:24:50;;;;;;;1.50;1.33;;;23.10;52.90;;;;;;4828728;29;20428;-82
2022/04/17 13:27:17;;;;;;;1.30;1.07;;;23.10;52.90;;;;;;4843878;29;20433;-82
2022/04/17 13:29:46;;;;;;;1.40;1.20;;;23.10;52.90;;;;;;4844595;29;20441;-82
2022/04/17 13:32:13;;;;;;;1.67;1.30;;;23.10;52.90;;;;;;4829916;29;20974;-82
2022/04/17 13:34:42;;;;;;;1.40;1.30;;;23.10;52.90;;;;;;4917965;29;20488;-82
2022/04/17 13:39:52;;;;;;;1.73;1.30;;;23.10;52.90;;;;;;4927608;28;20433;-82